createdAt,value
2022-11-27T00:01:28.224Z,82.31
2022-11-27T00:03:57.435Z,82.91
2022-11-27T00:06:27.704Z,82.31
2022-11-27T00:08:57.849Z,82.02
2022-11-27T00:11:27.636Z,82.64
2022-11-27T00:13:57.129Z,83.69
2022-11-27T00:16:26.284Z,84.65
2022-11-27T00:18:54.879Z,84.50
2022-11-27T00:21:25.691Z,84.83
2022-11-27T00:23:55.062Z,85.35
2022-11-27T00:26:24.052Z,84.80
2022-11-27T00:28:52.593Z,85.33
2022-11-27T00:31:27.412Z,85.98
2022-11-27T00:33:55.937Z,86.31
2022-11-27T00:36:24.326Z,85.92
2022-11-27T00:38:52.939Z,86.48
2022-11-27T00:41:22.990Z,86.87
2022-11-27T00:43:51.795Z,87.15
2022-11-27T00:46:28.091Z,88.50
2022-11-27T00:48:57.183Z,88.29
2022-11-27T00:51:26.979Z,87.51
2022-11-27T00:53:56.416Z,87.14
2022-11-27T00:56:26.303Z,87.89
2022-11-27T00:58:55.151Z,88.66
2022-11-27T01:01:26.214Z,87.67
2022-11-27T01:03:54.342Z,85.48
2022-11-27T01:06:22.574Z,84.98
2022-11-27T01:08:51.081Z,85.64
2022-11-27T01:11:24.917Z,84.75
2022-11-27T01:13:53.400Z,85.06
2022-11-27T01:16:24.013Z,84.44
2022-11-27T01:18:55.932Z,85.61
2022-11-27T01:21:23.972Z,85.73
2022-11-27T01:23:53.009Z,85.16
2022-11-27T01:26:21.090Z,85.85
2022-11-27T01:28:49.403Z,85.21
2022-11-27T01:31:19.380Z,84.27
2022-11-27T01:33:48.376Z,84.18
2022-11-27T01:36:17.876Z,84.58
2022-11-27T01:38:45.973Z,85.90
2022-11-27T01:41:17.449Z,84.91
2022-11-27T01:43:47.844Z,84.59
2022-11-27T01:46:28.376Z,85.36
2022-11-27T01:49:04.470Z,86.20
2022-11-27T01:51:34.370Z,85.92
2022-11-27T01:54:02.426Z,84.89
2022-11-27T01:56:31.097Z,85.10
2022-11-27T01:59:01.245Z,86.06
2022-11-27T02:01:29.296Z,85.72
2022-11-27T02:04:02.040Z,85.95
2022-11-27T02:06:30.575Z,85.89
2022-11-27T02:09:00.114Z,86.89
2022-11-27T02:11:40.145Z,87.12
2022-11-27T02:14:17.611Z,88.10
2022-11-27T02:16:57.457Z,89.57
2022-11-27T02:19:45.252Z,90.00
2022-11-27T02:22:28.722Z,90.57
2022-11-27T02:25:08.487Z,92.68
2022-11-27T02:27:58.800Z,92.83
2022-11-27T02:30:31.952Z,91.90
2022-11-27T02:33:02.737Z,91.76
2022-11-27T02:35:35.709Z,92.16
2022-11-27T02:38:08.920Z,92.34
2022-11-27T02:40:41.136Z,92.15
2022-11-27T02:43:14.323Z,92.35
2022-11-27T02:45:45.488Z,92.79
2022-11-27T02:48:16.594Z,93.49
2022-11-27T02:50:46.605Z,93.40
2022-11-27T02:53:20.074Z,93.01
2022-11-27T02:55:50.047Z,93.68
2022-11-27T02:58:22.135Z,94.11
2022-11-27T03:00:52.104Z,93.50
2022-11-27T03:03:25.811Z,93.71
2022-11-27T03:06:00.216Z,92.46
2022-11-27T03:08:34.540Z,92.71
2022-11-27T03:11:05.895Z,92.14
2022-11-27T03:13:38.531Z,92.17
2022-11-27T03:16:13.448Z,93.14
2022-11-27T03:18:47.894Z,92.53
2022-11-27T03:21:28.790Z,91.38
2022-11-27T03:23:58.071Z,90.90
2022-11-27T03:26:26.572Z,89.32
2022-11-27T03:28:57.038Z,89.14
2022-11-27T03:31:27.585Z,90.86
2022-11-27T03:33:56.153Z,90.88
2022-11-27T03:36:24.788Z,90.71
2022-11-27T03:38:55.405Z,90.48
2022-11-27T03:41:31.565Z,91.26
2022-11-27T03:44:09.273Z,90.80
2022-11-27T03:46:48.616Z,90.45
2022-11-27T03:49:25.752Z,90.82
2022-11-27T03:52:00.004Z,90.71
2022-11-27T03:54:41.116Z,90.89
2022-11-27T03:57:19.096Z,90.89
2022-11-27T03:59:50.640Z,90.50
2022-11-27T04:02:31.602Z,89.63
2022-11-27T04:04:59.721Z,90.04
2022-11-27T04:07:28.153Z,90.30
2022-11-27T04:09:57.115Z,91.03
2022-11-27T04:12:25.090Z,90.85
2022-11-27T04:14:53.315Z,90.35
2022-11-27T04:17:22.893Z,90.13
2022-11-27T04:19:50.930Z,90.86
2022-11-27T04:22:19.002Z,91.08
2022-11-27T04:24:47.082Z,91.54
2022-11-27T04:27:15.243Z,91.59
2022-11-27T04:29:43.346Z,90.82
2022-11-27T04:32:11.811Z,92.10
2022-11-27T04:34:41.432Z,92.40
2022-11-27T04:37:09.680Z,92.25
2022-11-27T04:39:37.773Z,92.70
2022-11-27T04:42:05.927Z,93.62
2022-11-27T04:44:34.014Z,93.28
2022-11-27T04:47:02.909Z,94.11
2022-11-27T04:49:31.215Z,94.10
2022-11-27T04:52:00.792Z,94.09
2022-11-27T04:54:29.846Z,94.79
2022-11-27T04:56:58.098Z,95.77
2022-11-27T04:59:26.083Z,95.11
2022-11-27T05:01:54.667Z,94.61
2022-11-27T05:04:22.786Z,94.32
2022-11-27T05:06:51.164Z,94.13
2022-11-27T05:09:20.772Z,95.38
2022-11-27T05:11:49.323Z,94.77
2022-11-27T05:14:18.266Z,94.44
2022-11-27T05:16:48.265Z,95.30
2022-11-27T05:19:17.517Z,96.59
2022-11-27T05:21:46.769Z,97.97
2022-11-27T05:24:15.776Z,98.50
2022-11-27T05:26:45.553Z,98.48
2022-11-27T05:29:14.515Z,98.14
2022-11-27T05:31:43.306Z,98.75
2022-11-27T05:34:11.576Z,98.47
2022-11-27T05:36:39.915Z,97.62
2022-11-27T05:39:09.186Z,96.63
2022-11-27T05:41:38.921Z,96.60
2022-11-27T05:44:08.353Z,96.45
2022-11-27T05:46:36.455Z,95.14
2022-11-27T05:49:06.354Z,94.60
2022-11-27T05:51:34.526Z,94.60
2022-11-27T05:54:02.574Z,93.46
2022-11-27T05:56:30.659Z,92.86
2022-11-27T05:58:59.603Z,93.01
2022-11-27T06:01:29.191Z,91.56
2022-11-27T06:03:57.191Z,91.72
2022-11-27T06:06:25.194Z,91.60
2022-11-27T06:08:53.633Z,92.72
2022-11-27T06:11:24.112Z,92.66
2022-11-27T06:13:52.620Z,91.20
2022-11-27T06:16:22.647Z,89.47
2022-11-27T06:18:53.293Z,90.45
2022-11-27T06:21:22.305Z,90.94
2022-11-27T06:23:50.713Z,91.42
2022-11-27T06:26:23.533Z,92.69
2022-11-27T06:28:51.875Z,91.60
2022-11-27T06:31:22.072Z,89.53
2022-11-27T06:33:53.688Z,88.02
2022-11-27T06:36:23.979Z,88.31
2022-11-27T06:38:52.538Z,88.73
2022-11-27T06:41:23.060Z,89.18
2022-11-27T06:43:51.365Z,89.15
2022-11-27T06:46:22.009Z,88.40
2022-11-27T06:48:53.381Z,88.16
2022-11-27T06:51:23.606Z,87.59
2022-11-27T06:53:52.554Z,88.76
2022-11-27T06:56:23.206Z,87.92
2022-11-27T06:58:53.417Z,88.41
2022-11-27T07:01:22.591Z,89.19
2022-11-27T07:03:52.200Z,85.33
2022-11-27T07:06:22.017Z,82.54
2022-11-27T07:08:50.348Z,82.68
2022-11-27T07:11:20.715Z,84.32
2022-11-27T07:13:49.685Z,83.61
2022-11-27T07:16:18.794Z,82.23
2022-11-27T07:18:49.599Z,82.54
2022-11-27T07:21:19.406Z,83.96
2022-11-27T07:23:47.838Z,82.65
2022-11-27T07:26:19.140Z,82.60
2022-11-27T07:28:47.434Z,82.98
2022-11-27T07:31:18.034Z,81.87
2022-11-27T07:33:46.238Z,82.11
2022-11-27T07:36:16.336Z,82.01
2022-11-27T07:38:46.301Z,80.21
2022-11-27T07:41:15.015Z,80.50
2022-11-27T07:43:44.362Z,80.06
2022-11-27T07:46:15.262Z,79.77
2022-11-27T07:48:44.121Z,80.52
2022-11-27T07:51:14.399Z,80.01
2022-11-27T07:53:43.263Z,81.17
2022-11-27T07:56:14.692Z,80.00
2022-11-27T07:58:42.846Z,79.41
2022-11-27T08:01:13.475Z,78.98
2022-11-27T08:03:44.209Z,77.52
2022-11-27T08:06:18.355Z,78.50
2022-11-27T08:08:47.301Z,77.43
2022-11-27T08:11:22.028Z,77.11
2022-11-27T08:13:50.739Z,77.75
2022-11-27T08:16:18.845Z,78.25
2022-11-27T08:18:46.979Z,78.84
2022-11-27T08:21:15.007Z,78.49
2022-11-27T08:23:43.965Z,78.52
2022-11-27T08:26:13.718Z,76.86
2022-11-27T08:28:44.053Z,76.06
2022-11-27T08:31:14.013Z,75.81
2022-11-27T08:33:42.823Z,75.53
2022-11-27T08:36:17.688Z,76.83
2022-11-27T08:38:46.309Z,75.82
2022-11-27T08:41:14.419Z,76.04
2022-11-27T08:43:43.861Z,76.06
2022-11-27T08:46:12.902Z,75.56
2022-11-27T08:48:41.872Z,75.23
2022-11-27T08:51:12.631Z,75.57
2022-11-27T08:53:41.413Z,74.64
2022-11-27T08:56:11.692Z,74.62
2022-11-27T08:58:41.256Z,73.86
2022-11-27T09:01:13.748Z,72.09
2022-11-27T09:03:42.143Z,71.34
2022-11-27T09:06:12.080Z,71.37
2022-11-27T09:08:40.935Z,71.26
2022-11-27T09:11:10.788Z,71.44
2022-11-27T09:13:40.404Z,72.83
2022-11-27T09:16:12.668Z,72.48
2022-11-27T09:18:42.029Z,72.59
2022-11-27T09:21:12.406Z,72.65
2022-11-27T09:23:40.937Z,72.97
2022-11-27T09:26:11.407Z,72.93
2022-11-27T09:28:41.507Z,71.87
2022-11-27T09:31:13.601Z,72.41
2022-11-27T09:33:43.186Z,71.02
2022-11-27T09:36:13.369Z,68.37
2022-11-27T09:38:42.538Z,69.05
2022-11-27T09:41:40.234Z,67.75
2022-11-27T09:44:24.851Z,67.13
2022-11-27T09:46:56.691Z,66.32
2022-11-27T09:49:29.573Z,67.06
2022-11-27T09:52:04.488Z,67.65
2022-11-27T09:54:39.000Z,67.34
2022-11-27T09:57:11.255Z,65.27
2022-11-27T09:59:46.646Z,64.72
2022-11-27T10:02:20.264Z,65.92
2022-11-27T10:05:12.819Z,66.89
2022-11-27T10:07:49.466Z,65.86
2022-11-27T10:10:32.445Z,64.83
2022-11-27T10:13:09.673Z,65.76
2022-11-27T10:15:43.627Z,64.81
2022-11-27T10:18:22.069Z,64.37
2022-11-27T10:20:52.387Z,63.55
2022-11-27T10:23:28.549Z,64.01
2022-11-27T10:26:02.398Z,63.90
2022-11-27T10:28:37.926Z,62.61
2022-11-27T10:31:13.255Z,60.80
2022-11-27T10:33:49.286Z,61.99
2022-11-27T10:36:23.528Z,62.00
2022-11-27T10:38:52.894Z,60.59
2022-11-27T10:41:48.244Z,61.06
2022-11-27T10:44:27.756Z,58.56
2022-11-27T10:47:02.975Z,59.90
2022-11-27T10:49:35.324Z,59.82
2022-11-27T10:52:03.386Z,59.59
2022-11-27T10:54:39.941Z,59.86
2022-11-27T10:57:30.182Z,58.09
2022-11-27T11:00:06.610Z,58.85
2022-11-27T11:02:38.805Z,57.79
2022-11-27T11:05:41.404Z,58.15
2022-11-27T11:08:19.133Z,55.89
2022-11-27T11:10:52.796Z,55.55
2022-11-27T11:13:22.970Z,55.92
2022-11-27T11:15:54.211Z,56.14
2022-11-27T11:18:24.369Z,54.99
2022-11-27T11:20:55.872Z,56.01
2022-11-27T11:23:28.998Z,57.42
2022-11-27T11:26:00.208Z,59.73
2022-11-27T11:28:29.449Z,59.18
2022-11-27T11:31:01.370Z,59.83
2022-11-27T11:33:29.998Z,56.96
2022-11-27T11:36:09.769Z,56.69
2022-11-27T11:38:38.851Z,54.98
2022-11-27T11:41:09.742Z,55.68
2022-11-27T11:43:38.924Z,54.92
2022-11-27T11:46:17.245Z,54.97
2022-11-27T11:48:59.091Z,54.92
2022-11-27T11:52:09.114Z,52.51
2022-11-27T11:54:50.222Z,53.70
2022-11-27T11:57:58.333Z,52.80
2022-11-27T12:00:58.589Z,53.16
2022-11-27T12:03:38.313Z,54.19
2022-11-27T12:06:28.826Z,52.60
2022-11-27T12:09:10.441Z,51.40
2022-11-27T12:11:46.937Z,50.80
2022-11-27T12:14:37.037Z,52.33
2022-11-27T12:17:18.922Z,53.32
2022-11-27T12:20:07.331Z,53.30
2022-11-27T12:23:00.509Z,53.34
2022-11-27T12:25:34.625Z,52.60
2022-11-27T12:28:20.126Z,51.63
2022-11-27T12:30:55.534Z,51.08
2022-11-27T12:33:35.489Z,48.59
2022-11-27T12:36:13.848Z,47.56
2022-11-27T12:39:04.413Z,47.73
2022-11-27T12:42:00.434Z,48.75
2022-11-27T12:44:38.770Z,49.28
2022-11-27T12:47:12.465Z,48.76
2022-11-27T12:49:46.435Z,45.84
2022-11-27T12:52:21.131Z,45.95
2022-11-27T12:54:56.027Z,46.09
2022-11-27T12:57:37.664Z,46.01
2022-11-27T13:00:15.466Z,46.49
2022-11-27T13:02:51.667Z,45.69
2022-11-27T13:05:25.649Z,45.86
2022-11-27T13:08:00.516Z,45.70
2022-11-27T13:10:35.919Z,45.99
2022-11-27T13:13:08.086Z,46.65
2022-11-27T13:15:43.945Z,48.75
2022-11-27T13:18:20.591Z,49.29
2022-11-27T13:20:52.902Z,49.62
2022-11-27T13:23:21.707Z,48.04
2022-11-27T13:25:54.689Z,48.40
2022-11-27T13:28:28.432Z,47.43
2022-11-27T13:31:01.890Z,46.79
2022-11-27T13:33:38.510Z,45.35
2022-11-27T13:36:09.682Z,47.17
2022-11-27T13:38:42.082Z,47.15
2022-11-27T13:41:20.755Z,47.00
2022-11-27T13:43:50.390Z,45.99
2022-11-27T13:46:25.960Z,45.92
2022-11-27T13:48:57.864Z,47.32
2022-11-27T13:51:28.992Z,47.96
2022-11-27T13:54:10.274Z,48.44
2022-11-27T13:56:38.632Z,48.27
2022-11-27T13:59:18.043Z,48.51
2022-11-27T14:02:01.954Z,48.16
2022-11-27T14:04:32.117Z,48.32
2022-11-27T14:07:03.803Z,48.26
2022-11-27T14:09:39.855Z,48.60
2022-11-27T14:12:22.188Z,47.42
2022-11-27T14:15:04.512Z,48.71
2022-11-27T14:17:40.558Z,47.76
2022-11-27T14:20:24.320Z,47.85
2022-11-27T14:23:11.758Z,48.32
2022-11-27T14:25:41.697Z,48.47
2022-11-27T14:28:16.203Z,48.33
2022-11-27T14:30:49.106Z,48.57
2022-11-27T14:33:24.465Z,47.96
2022-11-27T14:35:54.660Z,47.80
2022-11-27T14:38:26.602Z,47.29
2022-11-27T14:40:55.973Z,47.64
2022-11-27T14:43:26.219Z,47.21
2022-11-27T14:45:56.187Z,48.07
2022-11-27T14:48:30.781Z,47.32
2022-11-27T14:50:59.776Z,47.76
2022-11-27T14:53:29.148Z,47.73
2022-11-27T14:55:59.708Z,48.22
2022-11-27T14:58:29.987Z,47.35
2022-11-27T15:01:00.903Z,47.76
2022-11-27T15:03:30.790Z,48.33
2022-11-27T15:06:00.799Z,48.45
2022-11-27T15:08:30.950Z,51.73
2022-11-27T15:11:01.399Z,53.02
2022-11-27T15:13:32.506Z,53.83
2022-11-27T15:16:05.211Z,54.30
2022-11-27T15:18:38.414Z,55.20
2022-11-27T15:21:11.669Z,55.73
2022-11-27T15:23:46.061Z,55.79
2022-11-27T15:26:19.942Z,56.30
2022-11-27T15:28:57.302Z,56.28
2022-11-27T15:31:32.742Z,56.29
2022-11-27T15:34:21.726Z,56.53
2022-11-27T15:36:52.977Z,56.68
2022-11-27T15:39:23.862Z,57.05
2022-11-27T15:41:54.931Z,58.46
2022-11-27T15:44:24.063Z,58.21
2022-11-27T15:46:54.315Z,57.61
2022-11-27T15:49:24.176Z,57.00
2022-11-27T15:51:53.061Z,57.77
2022-11-27T15:54:21.271Z,57.64
2022-11-27T15:56:49.513Z,58.05
2022-11-27T15:59:20.747Z,58.40
2022-11-27T16:01:49.991Z,59.11
2022-11-27T16:04:18.381Z,57.80
2022-11-27T16:06:47.868Z,58.03
2022-11-27T16:09:16.005Z,58.04
2022-11-27T16:11:44.217Z,58.47
2022-11-27T16:14:12.886Z,58.24
2022-11-27T16:16:41.030Z,59.15
2022-11-27T16:19:12.237Z,59.48
2022-11-27T16:21:40.448Z,59.51
2022-11-27T16:24:13.002Z,59.67
2022-11-27T16:26:41.436Z,60.38
2022-11-27T16:29:10.870Z,60.20
2022-11-27T16:31:39.025Z,59.96
2022-11-27T16:34:07.628Z,60.20
2022-11-27T16:36:36.147Z,60.88
2022-11-27T16:39:04.339Z,61.18
2022-11-27T16:41:33.858Z,61.34
2022-11-27T16:44:02.654Z,60.98
2022-11-27T16:46:32.126Z,61.06
2022-11-27T16:49:01.574Z,60.77
2022-11-27T16:51:32.106Z,60.66
2022-11-27T16:54:02.363Z,61.18
2022-11-27T16:56:31.815Z,61.92
2022-11-27T16:59:03.328Z,62.87
2022-11-27T17:01:34.480Z,62.77
2022-11-27T17:04:04.885Z,62.90
2022-11-27T17:06:35.129Z,61.96
2022-11-27T17:09:05.774Z,62.29
2022-11-27T17:11:36.018Z,62.95
2022-11-27T17:14:07.342Z,62.99
2022-11-27T17:16:36.253Z,62.96
2022-11-27T17:19:04.325Z,63.00
2022-11-27T17:21:35.222Z,62.93
2022-11-27T17:24:10.072Z,63.89
2022-11-27T17:26:43.662Z,64.23
2022-11-27T17:29:14.723Z,64.61
2022-11-27T17:31:43.170Z,65.44
2022-11-27T17:34:13.748Z,65.38
2022-11-27T17:36:44.179Z,66.09
2022-11-27T17:39:14.696Z,66.13
2022-11-27T17:41:45.141Z,66.53
2022-11-27T17:44:15.245Z,66.65
2022-11-27T17:46:45.537Z,66.39
2022-11-27T17:49:13.545Z,66.63
2022-11-27T17:51:41.697Z,67.00
2022-11-27T17:54:09.726Z,66.99
2022-11-27T17:56:37.927Z,67.08
2022-11-27T17:59:05.989Z,67.82
2022-11-27T18:01:35.615Z,67.67
2022-11-27T18:04:05.568Z,68.00
2022-11-27T18:06:34.603Z,68.06
2022-11-27T18:09:02.938Z,67.98
2022-11-27T18:11:33.931Z,67.75
2022-11-27T18:14:02.980Z,67.04
2022-11-27T18:16:33.362Z,67.42
2022-11-27T18:19:05.047Z,67.47
2022-11-27T18:21:33.171Z,68.05
2022-11-27T18:29:39.014Z,67.50
2022-11-27T18:32:07.876Z,68.03
2022-11-27T18:34:37.645Z,68.32
2022-11-27T18:37:06.014Z,68.34
2022-11-27T18:39:35.412Z,69.00
2022-11-27T18:42:05.140Z,68.17
2022-11-27T18:44:33.573Z,68.65
2022-11-27T18:47:02.035Z,69.00
2022-11-27T18:49:30.010Z,69.48
2022-11-27T18:51:59.557Z,69.22
2022-11-27T18:54:27.795Z,68.86
2022-11-27T18:56:56.013Z,69.62
2022-11-27T18:59:24.299Z,70.20
2022-11-27T19:01:52.550Z,70.52
2022-11-27T19:04:20.884Z,70.92
2022-11-27T19:06:48.974Z,70.70
2022-11-27T19:09:19.262Z,70.95
2022-11-27T19:11:47.372Z,70.78
2022-11-27T19:14:15.614Z,70.78
2022-11-27T19:16:46.635Z,70.95
2022-11-27T19:22:07.653Z,70.96
2022-11-27T19:24:37.911Z,70.87
2022-11-27T19:27:06.153Z,70.00
2022-11-27T19:29:36.129Z,70.71
2022-11-27T19:32:04.480Z,70.36
2022-11-27T19:34:33.070Z,69.61
2022-11-27T19:37:01.142Z,69.82
2022-11-27T19:39:29.591Z,71.39
2022-11-27T19:41:59.149Z,71.01
2022-11-27T19:44:27.686Z,70.27
2022-11-27T19:46:55.830Z,70.78
2022-11-27T19:49:24.191Z,72.22
2022-11-27T19:51:52.382Z,70.57
2022-11-27T19:54:21.937Z,71.13
2022-11-27T19:56:50.083Z,71.41
2022-11-27T19:59:25.387Z,70.50
2022-11-27T20:01:54.168Z,70.59
2022-11-27T20:04:22.512Z,70.06
2022-11-27T20:06:52.913Z,70.40
2022-11-27T20:09:21.105Z,70.62
2022-11-27T20:11:49.312Z,70.15
2022-11-27T20:14:17.444Z,69.78
2022-11-27T20:16:47.038Z,69.57
2022-11-27T20:19:15.297Z,70.02
2022-11-27T20:21:44.461Z,69.81
2022-11-27T20:24:12.955Z,69.15
2022-11-27T20:26:42.950Z,69.90
2022-11-27T20:29:12.284Z,69.75
2022-11-27T20:31:42.052Z,70.10
2022-11-27T20:34:17.873Z,69.38
2022-11-27T20:36:46.332Z,69.53
2022-11-27T20:39:20.556Z,70.03
2022-11-27T20:41:50.446Z,70.76
2022-11-27T20:44:18.522Z,70.76
2022-11-27T20:46:46.604Z,71.60
2022-11-27T20:49:16.395Z,70.96
2022-11-27T20:51:44.506Z,71.48
2022-11-27T20:54:12.938Z,71.50
2022-11-27T20:56:43.373Z,70.97
2022-11-27T20:59:12.572Z,71.32
2022-11-27T21:01:42.624Z,71.06
2022-11-27T21:04:21.295Z,71.74
2022-11-27T21:06:50.196Z,71.72
2022-11-27T21:09:19.042Z,71.83
2022-11-27T21:11:48.272Z,72.29
2022-11-27T21:14:18.297Z,72.56
2022-11-27T21:16:49.074Z,72.88
2022-11-27T21:19:21.243Z,72.50
2022-11-27T21:21:49.933Z,71.89
2022-11-27T21:24:19.079Z,72.11
2022-11-27T21:26:48.294Z,71.54
2022-11-27T21:29:16.899Z,71.58
2022-11-27T21:31:47.451Z,72.15
2022-11-27T21:34:16.516Z,71.62
2022-11-27T21:36:46.093Z,71.50
2022-11-27T21:39:20.558Z,71.67
2022-11-27T21:41:49.900Z,71.97
2022-11-27T21:44:18.243Z,72.67
2022-11-27T21:46:46.953Z,72.68
2022-11-27T21:49:16.740Z,72.35
2022-11-27T21:51:46.571Z,72.01
2022-11-27T21:54:16.014Z,71.98
2022-11-27T21:56:44.089Z,71.30
2022-11-27T21:59:14.031Z,72.12
2022-11-27T22:01:42.240Z,72.15
2022-11-27T22:04:10.412Z,72.34
2022-11-27T22:06:40.968Z,72.39
2022-11-27T22:09:15.357Z,72.34
2022-11-27T22:11:45.012Z,72.83
2022-11-27T22:14:14.214Z,72.68
2022-11-27T22:16:45.675Z,73.05
2022-11-27T22:19:15.568Z,73.55
2022-11-27T22:21:44.317Z,73.47
2022-11-27T22:24:18.846Z,74.16
2022-11-27T22:26:48.079Z,74.21
2022-11-27T22:29:16.398Z,75.10
2022-11-27T22:31:44.523Z,75.74
2022-11-27T22:34:12.762Z,76.98
2022-11-27T22:36:40.837Z,79.11
2022-11-27T22:39:09.838Z,81.22
2022-11-27T22:41:40.394Z,82.62
2022-11-27T22:44:08.911Z,84.30
2022-11-27T22:46:38.452Z,84.50
2022-11-27T22:49:07.745Z,85.85
2022-11-27T22:51:37.809Z,87.08
2022-11-27T22:54:07.554Z,88.03
2022-11-27T22:56:36.343Z,89.37
2022-11-27T22:59:31.020Z,87.93
2022-11-27T23:01:55.721Z,88.13
2022-11-27T23:04:23.741Z,90.39
2022-11-27T23:06:51.805Z,90.91
2022-11-27T23:09:20.073Z,91.17
2022-11-27T23:11:48.586Z,92.34
2022-11-27T23:14:18.444Z,93.33
2022-11-27T23:16:47.404Z,94.53
2022-11-27T23:19:15.530Z,93.55
2022-11-27T23:21:43.691Z,93.78
2022-11-27T23:24:15.341Z,93.87
2022-11-27T23:26:43.966Z,94.37
2022-11-27T23:29:12.021Z,96.27
2022-11-27T23:31:41.948Z,97.13
2022-11-27T23:34:13.269Z,97.03
2022-11-27T23:36:41.444Z,93.25
2022-11-27T23:39:12.533Z,93.50
2022-11-27T23:41:41.018Z,95.34
2022-11-27T23:44:09.076Z,97.44
2022-11-27T23:46:37.184Z,98.30
2022-11-27T23:49:06.702Z,99.49
2022-11-27T23:51:35.276Z,98.91
2022-11-27T23:54:03.350Z,97.06
2022-11-27T23:56:33.116Z,98.18
2022-11-27T23:59:02.146Z,98.04
